Marion, TX (78124)

5:14 AM CST on December 27, 2014 (GMT -0600)
Northcliffe | Change Station
CLOSE
Current Station
Personal Weather Station
Location: Schertz, TX
Elevation: 804 ft
Nearby Weather Stations

Elev 804 ft 29.63 °N, 98.23 °W | Updated 11 minutes ago

Overcast
Overcast
63.1 °F
Feels Like 63.1 °F
N
0.0
Wind Variable Wind from WNW

Today
High -- | Low -- °F
--% Chance of Precip.
Yesterday
High -- | Low -- °F
Precip. -- in
7:25 AM 5:41 PM
Waxing Crescent, 35% visible
Pressure 29.95 in
Visibility 2.5 miles
Clouds Clear
Dew Point 63 °F
Humidity 99%
Rainfall 0.00 in
Snow Depth Not available.
UV 0 out of 12
Pollen 10.10 out of 12
Air Quality Not available.
Flu Activity Not available.
SPECI KRND 271109Z AUTO 34004KT 2 1/2SM R32R/3500FT BR CLR 17/17 A2995 RMK AO2 VIS 2 1/2V4 DZE1104 CIG 007 RWY14L

More Conditions Fewer Conditions

Pressure 29.95 in
Visibility 2.5 miles
Clouds Clear
Dew Point 63 °F
Humidity 99%
Rainfall 0.00 in
Snow Depth Not available.
UV 0 out of 12
Pollen 10.10 out of 12
Air Quality Not available.
Flu Activity Not available.
SPECI KRND 271109Z AUTO 34004KT 2 1/2SM R32R/3500FT BR CLR 17/17 A2995 RMK AO2 VIS 2 1/2V4 DZE1104 CIG 007 RWY14L

More Conditions Fewer Conditions

Nowcast | as of 3:02 am CST on December 27, 2014

Through 5 am...patchy fog will continue across The Hill Country and Interstate 35 corridor. A few locations will experience visibility 1/2 mile or less. If traveling early this morning be alert for rapidly changing visibility. Slow down and use low beam headlights if you encounter dense fog.

×

10-Day Weather Forecast

Almanac

Astronomy

Dec. 27, 2014 Rise Set
Actual Time
Civil Twilight
Nautical Twilight
Astronomical Twilight
Moon
Length of Visible Light
Length of Day
Tomorrow will be .
, % of the Moon is Illuminated

Today's Extremes

State Highs State Lows

Community

WunderPhotos

Upload Photos

1,780,879 photos uploaded!

WunderBlogs® & News

Nearby

Air Quality

  Air Quality AQ Index Pollutant
Not available.

Snow Depth

Station Depth Elevation

Earthquake Activity

City Distance Mag. Time & Date
Minimum magnitude displayed is 2.5.

Coastal Water Temperatures

Place Temperature

Nearby Weather Stations